Time;durP1;ratioP1;P1;durP2;ratioP2;P2;SDS_P1;SDS_P2;PMS_P1;PMS_P2;Temp;Humidity;BMP_temperature;BMP_pressure;BME280_temperature;BME280_humidity;BME280_pressure;Samples;Min_cycle;Max_cycle;Signal;HPM_P1;HPM_P2
2022/11/22 00:01:38;;;;;;;26.90;12.18;;;;;;;2.00;85.60;99524.28;5048074;28;20129;-67
2022/11/22 00:04:04;;;;;;;30.67;13.65;;;;;;;2.30;84.28;99530.91;5047932;28;20068;-67
2022/11/22 00:06:31;;;;;;;31.02;12.07;;;;;;;2.45;83.09;99516.56;5055745;28;20212;-66
2022/11/22 00:08:57;;;;;;;28.63;12.65;;;;;;;2.10;85.10;99514.47;5047678;28;20515;-66
2022/11/22 00:11:25;;;;;;;29.40;12.88;;;;;;;1.66;86.17;99501.41;5039950;28;20052;-66
2022/11/22 00:13:52;;;;;;;26.63;11.77;;;;;;;1.72;86.83;99503.75;5052947;28;20051;-66
2022/11/22 00:16:18;;;;;;;25.48;10.32;;;;;;;1.75;86.27;99500.22;5049458;27;20048;-66
2022/11/22 00:18:44;;;;;;;27.33;12.43;;;;;;;1.81;86.43;99502.59;5037910;28;20044;-67
2022/11/22 00:21:11;;;;;;;28.98;12.55;;;;;;;1.53;87.84;99494.13;5048164;28;20055;-66
2022/11/22 00:23:37;;;;;;;31.55;13.52;;;;;;;1.53;88.54;99500.13;5047757;28;20044;-66
2022/11/22 00:26:05;;;;;;;30.55;13.77;;;;;;;1.38;88.39;99492.91;5038122;27;20041;-66
2022/11/22 00:28:33;;;;;;;29.27;13.13;;;;;;;1.47;89.05;99495.19;5048999;27;20131;-67
2022/11/22 00:31:00;;;;;;;29.85;14.30;;;;;;;1.52;87.83;99493.28;5047348;27;20045;-66
2022/11/22 00:33:26;;;;;;;24.25;11.68;;;;;;;1.39;88.89;99490.28;5038651;28;20055;-66
2022/11/22 00:35:52;;;;;;;28.38;13.40;;;;;;;1.56;88.71;99502.59;5048461;28;20047;-66
2022/11/22 00:38:19;;;;;;;28.52;12.05;;;;;;;1.27;89.97;99495.00;5047361;28;20416;-66
2022/11/22 00:40:45;;;;;;;32.65;12.25;;;;;;;1.63;88.81;99493.72;5039434;27;20059;-66
2022/11/22 00:43:12;;;;;;;25.55;12.50;;;;;;;1.86;87.03;99488.59;5048368;28;20052;-66
2022/11/22 00:45:43;;;;;;;26.58;12.00;;;;;;;1.58;87.99;99485.31;5066243;28;20059;-66
2022/11/22 00:48:09;;;;;;;18.92;10.18;;;;;;;1.48;88.90;99486.53;5059174;28;20048;-66
2022/11/22 00:50:36;;;;;;;27.45;11.73;;;;;;;1.36;89.28;99490.41;5068911;28;20055;-66
2022/11/22 00:53:02;;;;;;;25.85;11.25;;;;;;;1.54;88.92;99490.66;5068620;28;20607;-66
2022/11/22 00:55:29;;;;;;;24.98;12.10;;;;;;;1.77;88.65;99495.84;5038203;27;20074;-66
2022/11/22 00:57:55;;;;;;;25.30;11.68;;;;;;;1.91;86.57;99491.88;5080036;28;20169;-66
2022/11/22 01:00:22;;;;;;;25.85;12.15;;;;;;;2.42;85.31;99498.56;5046983;28;20044;-67
2022/11/22 01:02:50;;;;;;;29.13;12.80;;;;;;;2.09;86.96;99492.09;5055414;28;20051;-66
2022/11/22 01:05:17;;;;;;;27.20;12.63;;;;;;;2.30;85.18;99496.44;5062637;28;20052;-66
2022/11/22 01:07:43;;;;;;;29.55;12.52;;;;;;;2.35;84.48;99504.88;5052079;28;20097;-66
2022/11/22 01:10:10;;;;;;;25.45;12.23;;;;;;;2.09;85.14;99513.63;5047240;28;20510;-66
2022/11/22 01:12:37;;;;;;;24.50;11.45;;;;;;;2.45;84.05;99521.72;5049049;28;20045;-67
2022/11/22 01:15:04;;;;;;;23.00;11.63;;;;;;;2.42;84.63;99509.78;5052155;28;20051;-66
2022/11/22 01:17:31;;;;;;;27.38;12.57;;;;;;;2.25;84.96;99499.22;5039176;28;20510;-66
2022/11/22 01:19:59;;;;;;;22.33;10.88;;;;;;;2.07;85.27;99496.47;5048180;28;20060;-67
2022/11/22 01:22:25;;;;;;;18.77;11.23;;;;;;;2.05;85.56;99490.50;5047180;28;20070;-66
2022/11/22 01:24:51;;;;;;;24.35;12.38;;;;;;;2.04;85.58;99481.91;5040182;28;20045;-66
2022/11/22 01:27:18;;;;;;;21.38;11.05;;;;;;;2.38;84.46;99468.56;5048143;28;20617;-67
2022/11/22 01:29:44;;;;;;;24.52;11.48;;;;;;;2.20;84.81;99479.59;5052531;27;20436;-66
2022/11/22 01:32:11;;;;;;;24.25;11.05;;;;;;;2.42;84.00;99483.06;5046995;28;20052;-66
2022/11/22 01:34:37;;;;;;;22.15;10.63;;;;;;;2.16;84.86;99483.19;5046721;28;20075;-67
2022/11/22 01:37:05;;;;;;;24.95;11.35;;;;;;;2.23;84.77;99480.31;5046687;28;20045;-67
2022/11/22 01:39:32;;;;;;;26.83;11.85;;;;;;;2.35;84.80;99487.63;5063227;28;20048;-66
2022/11/22 01:41:58;;;;;;;25.00;12.48;;;;;;;2.02;85.18;99478.56;5058917;28;20060;-66
2022/11/22 01:44:27;;;;;;;21.15;10.30;;;;;;;2.07;85.02;99478.38;5046965;28;20048;-66
2022/11/22 01:46:55;;;;;;;25.73;11.00;;;;;;;2.06;85.47;99477.53;5069555;27;20052;-66
2022/11/22 01:49:30;;;;;;;22.52;11.15;;;;;;;1.62;86.80;99470.56;5028183;28;20493;-66
2022/11/22 01:52:01;;;;;;;22.75;10.38;;;;;;;1.40;89.42;99462.72;5043590;27;20055;-67
2022/11/22 01:54:32;;;;;;;21.05;10.15;;;;;;;1.74;87.76;99465.78;5038658;28;20045;-66
2022/11/22 01:57:03;;;;;;;18.15;9.23;;;;;;;2.07;85.58;99468.03;5072439;27;20062;-67
2022/11/22 01:59:33;;;;;;;17.98;9.98;;;;;;;1.92;86.06;99457.34;5048516;28;20052;-66
2022/11/22 02:02:00;;;;;;;24.13;10.98;;;;;;;1.81;86.22;99456.09;5053234;28;20050;-66
2022/11/22 02:04:29;;;;;;;22.50;10.55;;;;;;;2.00;85.88;99441.56;5071906;28;20044;-66
2022/11/22 02:07:02;;;;;;;17.13;8.68;;;;;;;1.83;86.09;99442.19;5037484;28;20045;-66
2022/11/22 02:09:30;;;;;;;24.17;11.55;;;;;;;1.93;86.18;99434.94;5046205;28;20060;-66
2022/11/22 02:12:00;;;;;;;20.67;10.35;;;;;;;1.78;86.53;99431.16;5051918;28;20058;-66
2022/11/22 02:14:29;;;;;;;23.42;10.98;;;;;;;1.75;87.34;99427.84;5048452;28;20051;-66
2022/11/22 02:16:56;;;;;;;23.33;10.73;;;;;;;1.93;85.99;99422.00;5050762;28;20404;-66
2022/11/22 02:19:30;;;;;;;26.05;11.32;;;;;;;2.40;84.57;99427.97;5051547;28;20442;-66
2022/11/22 02:22:04;;;;;;;19.20;9.52;;;;;;;2.17;84.81;99418.50;5051409;28;20051;-66
2022/11/22 02:24:39;;;;;;;22.33;11.18;;;;;;;1.84;86.60;99420.63;5051073;28;20064;-66
2022/11/22 02:27:07;;;;;;;22.00;10.70;;;;;;;2.01;85.16;99419.13;5041631;28;20041;-66
2022/11/22 02:29:34;;;;;;;21.92;10.02;;;;;;;1.78;85.77;99402.75;5049993;28;20051;-66
2022/11/22 02:32:00;;;;;;;17.67;8.43;;;;;;;1.91;85.57;99413.47;5051248;28;20500;-66
2022/11/22 02:34:26;;;;;;;19.77;10.38;;;;;;;1.60;87.89;99407.75;5041042;28;20516;-66
2022/11/22 02:36:54;;;;;;;23.20;11.38;;;;;;;2.06;85.52;99417.22;5053907;28;20070;-66
2022/11/22 02:39:26;;;;;;;20.17;10.73;;;;;;;2.29;85.00;99420.59;5062770;28;20055;-67
2022/11/22 02:41:55;;;;;;;18.15;9.73;;;;;;;2.10;84.64;99411.88;5064599;28;20052;-66
2022/11/22 02:44:24;;;;;;;19.58;9.50;;;;;;;2.17;84.53;99402.16;5059739;28;20050;-67
2022/11/22 02:46:53;;;;;;;21.55;10.98;;;;;;;1.73;87.21;99398.66;5063020;27;20261;-66
2022/11/22 02:49:21;;;;;;;27.65;11.02;;;;;;;1.72;86.95;99390.06;5083201;27;20048;-66
2022/11/22 02:51:48;;;;;;;27.30;12.02;;;;;;;1.69;87.13;99390.19;5050209;28;20044;-66
2022/11/22 02:54:15;;;;;;;24.48;10.20;;;;;;;1.76;87.12;99389.06;5039764;28;20420;-66
2022/11/22 02:56:42;;;;;;;23.10;10.75;;;;;;;1.77;87.42;99392.47;5053501;28;20059;-67
2022/11/22 02:59:09;;;;;;;22.98;10.05;;;;;;;1.69;87.54;99391.91;5060678;28;20068;-66
2022/11/22 03:01:37;;;;;;;24.33;10.23;;;;;;;1.96;86.25;99393.44;5039219;28;20036;-66
2022/11/22 03:04:04;;;;;;;22.92;11.55;;;;;;;2.11;85.87;99376.50;5048766;28;20060;-66
2022/11/22 03:06:30;;;;;;;24.13;11.02;;;;;;;2.10;85.62;99382.59;5050773;28;20052;-66
2022/11/22 03:08:57;;;;;;;20.60;10.77;;;;;;;2.16;85.33;99378.03;5052708;28;20055;-66
2022/11/22 03:11:23;;;;;;;24.48;11.70;;;;;;;1.85;86.83;99380.94;5058783;28;20044;-66
2022/11/22 03:13:50;;;;;;;24.33;11.85;;;;;;;2.19;84.81;99388.25;5062229;28;20129;-66
2022/11/22 03:16:17;;;;;;;25.33;12.02;;;;;;;2.07;85.17;99386.13;5060649;28;20276;-66
2022/11/22 03:18:45;;;;;;;24.23;11.85;;;;;;;2.31;85.21;99392.09;5057755;28;20044;-67
2022/11/22 03:21:11;;;;;;;25.70;12.45;;;;;;;1.89;86.74;99400.59;5048979;28;20520;-66
2022/11/22 03:23:38;;;;;;;21.88;11.30;;;;;;;2.46;84.18;99378.56;5040876;28;20060;-66
2022/11/22 03:26:08;;;;;;;24.80;12.43;;;;;;;2.70;82.81;99387.88;5049126;28;20044;-66
2022/11/22 03:28:35;;;;;;;22.90;11.63;;;;;;;2.02;85.39;99394.97;5049496;28;20115;-66
2022/11/22 03:31:01;;;;;;;21.10;11.70;;;;;;;2.04;85.47;99388.84;5039432;28;20047;-66
2022/11/22 03:33:27;;;;;;;25.98;13.25;;;;;;;2.39;83.95;99387.47;5048218;28;20044;-67
2022/11/22 03:35:56;;;;;;;23.83;11.82;;;;;;;2.54;84.13;99384.25;5049152;28;20052;-66
2022/11/22 03:38:23;;;;;;;24.38;11.80;;;;;;;2.70;82.77;99387.88;5048324;28;20052;-65
2022/11/22 03:40:49;;;;;;;22.52;11.18;;;;;;;2.94;81.50;99392.06;5066494;28;20044;-65
2022/11/22 03:43:16;;;;;;;26.52;12.43;;;;;;;3.19;80.44;99389.25;5058140;28;20522;-65
2022/11/22 03:45:44;;;;;;;24.35;12.38;;;;;;;2.94;80.46;99397.25;5039978;28;20063;-66
2022/11/22 03:48:11;;;;;;;23.60;11.57;;;;;;;2.49;82.49;99399.13;5048394;28;20394;-66
2022/11/22 03:50:37;;;;;;;24.10;11.40;;;;;;;2.62;83.13;99396.91;5048743;28;20052;-66
2022/11/22 03:53:05;;;;;;;22.55;10.52;;;;;;;3.02;81.40;99393.50;5038625;28;20051;-66
2022/11/22 03:55:32;;;;;;;23.10;11.63;;;;;;;2.63;83.39;99396.81;5047908;28;20455;-66
2022/11/22 03:57:59;;;;;;;25.08;11.63;;;;;;;2.88;81.89;99389.72;5048596;28;20040;-66
2022/11/22 04:00:25;;;;;;;25.85;11.90;;;;;;;2.69;83.04;99386.22;5037622;28;20052;-66
2022/11/22 04:02:51;;;;;;;25.77;11.90;;;;;;;2.54;82.84;99370.47;5047646;28;20045;-66
2022/11/22 04:05:18;;;;;;;26.25;11.85;;;;;;;2.46;84.17;99373.38;5048025;28;20048;-66
2022/11/22 04:07:44;;;;;;;22.05;10.45;;;;;;;2.59;83.82;99368.56;5065995;27;20046;-66
2022/11/22 04:10:12;;;;;;;22.80;11.30;;;;;;;2.31;84.60;99376.56;5077888;27;20059;-66
2022/11/22 04:12:39;;;;;;;21.65;11.02;;;;;;;2.15;85.57;99362.56;5059548;28;20052;-66
2022/11/22 04:15:05;;;;;;;24.02;11.02;;;;;;;2.45;84.89;99359.59;5055467;28;20040;-66
2022/11/22 04:17:43;;;;;;;23.35;11.35;;;;;;;2.51;84.22;99358.53;5099824;27;20046;-65
2022/11/22 04:22:57;;;;;;;21.20;10.70;;;;;;;1.96;87.49;99368.44;5047946;27;20051;-66
2022/11/22 04:25:24;;;;;;;20.67;11.57;;;;;;;1.66;88.78;99379.97;5049181;27;20052;-66
2022/11/22 04:27:50;;;;;;;27.63;14.85;;;;;;;1.79;89.01;99388.09;5039420;28;20466;-66
2022/11/22 04:30:17;;;;;;;23.80;12.18;;;;;;;1.67;89.92;99383.38;5047020;28;20320;-65
2022/11/22 04:32:45;;;;;;;25.98;12.30;;;;;;;1.67;90.70;99375.63;5049294;28;20041;-65
2022/11/22 04:35:13;;;;;;;23.92;11.13;;;;;;;1.86;89.04;99366.28;5038590;28;20135;-66
2022/11/22 04:37:39;;;;;;;25.70;12.57;;;;;;;1.92;87.77;99369.47;5055220;28;20044;-66
2022/11/22 04:40:07;;;;;;;26.13;13.05;;;;;;;1.91;88.41;99370.38;5062701;28;20534;-66
2022/11/22 04:45:19;;;;;;;25.58;11.98;;;;;;;1.88;88.96;99385.16;5065336;28;20138;-66
2022/11/22 04:48:01;;;;;;;25.02;11.85;;;;;;;1.82;89.89;99382.78;5059132;28;20066;-66
2022/11/22 04:53:14;;;;;;;25.85;11.32;;;;;;;2.33;86.62;99392.88;5056524;27;20603;-66
2022/11/22 04:55:41;;;;;;;15.48;8.70;;;;;;;2.07;87.66;99390.47;5047925;27;20045;-66
2022/11/22 04:58:09;;;;;;;26.73;12.60;;;;;;;2.24;88.07;99381.16;5039102;27;20055;-66
2022/11/22 05:00:35;;;;;;;28.48;12.98;;;;;;;2.45;86.29;99376.84;5047702;27;20044;-66
2022/11/22 05:03:03;;;;;;;29.33;12.48;;;;;;;2.87;84.90;99375.09;5047557;28;20041;-66
2022/11/22 05:05:29;;;;;;;26.73;12.82;;;;;;;2.86;83.96;99373.41;5039487;28;20049;-66
2022/11/22 05:07:58;;;;;;;24.00;12.13;;;;;;;2.06;87.67;99381.03;5086343;27;20048;-66
2022/11/22 05:10:24;;;;;;;25.88;12.98;;;;;;;2.06;89.02;99373.28;5047929;28;20048;-66
2022/11/22 05:12:51;;;;;;;26.45;13.23;;;;;;;2.07;88.28;99382.72;5043881;28;20059;-66
2022/11/22 05:15:18;;;;;;;25.65;13.20;;;;;;;1.48;92.80;99378.03;5064085;28;20052;-66
2022/11/22 05:17:45;;;;;;;30.85;14.27;;;;;;;2.01;90.28;99370.00;5069273;28;20047;-66
2022/11/22 05:20:12;;;;;;;26.83;12.80;;;;;;;1.82;90.35;99370.72;5054787;27;20049;-66
2022/11/22 05:25:22;;;;;;;32.78;15.35;;;;;;;1.92;90.35;99378.97;5038565;27;20098;-66
2022/11/22 05:27:53;;;;;;;30.02;15.27;;;;;;;2.24;89.22;99375.13;5047210;28;20060;-66
2022/11/22 05:30:21;;;;;;;25.73;14.13;;;;;;;2.40;88.38;99373.63;5046264;28;20432;-66
2022/11/22 05:32:47;;;;;;;27.30;13.85;;;;;;;2.18;88.63;99362.47;5037596;28;20518;-66
2022/11/22 05:35:13;;;;;;;23.25;10.32;;;;;;;1.99;90.03;99362.34;5047522;28;20049;-66
2022/11/22 05:37:40;;;;;;;29.55;13.73;;;;;;;2.06;90.18;99360.34;5054955;27;20044;-66
2022/11/22 05:40:08;;;;;;;19.83;10.18;;;;;;;1.97;89.33;99364.13;5043031;28;20049;-67
2022/11/22 05:42:35;;;;;;;30.25;14.38;;;;;;;2.30;89.27;99362.81;5055943;28;20492;-66
2022/11/22 05:45:02;;;;;;;37.33;15.70;;;;;;;2.82;86.15;99364.09;5061150;28;20488;-66
2022/11/22 05:47:33;;;;;;;29.27;14.13;;;;;;;3.07;84.61;99361.28;5058504;28;20051;-66
2022/11/22 05:50:00;;;;;;;30.90;15.30;;;;;;;3.38;83.06;99359.06;5069182;28;20047;-66
2022/11/22 05:52:26;;;;;;;23.92;12.18;;;;;;;3.46;81.88;99353.53;5072589;28;20043;-66
2022/11/22 05:54:52;;;;;;;28.05;13.70;;;;;;;3.64;81.41;99357.91;5048006;28;20059;-66
2022/11/22 05:57:19;;;;;;;26.67;12.75;;;;;;;3.44;81.52;99355.34;5051539;28;20048;-66
2022/11/22 05:59:45;;;;;;;24.95;13.13;;;;;;;3.37;82.01;99353.94;5042776;28;20989;-66
2022/11/22 06:02:12;;;;;;;30.60;14.43;;;;;;;3.15;82.97;99359.22;5041123;28;20559;-66
2022/11/22 06:04:39;;;;;;;26.48;12.93;;;;;;;2.93;83.74;99372.25;5050833;28;20048;-66
2022/11/22 06:07:06;;;;;;;26.33;13.32;;;;;;;2.98;83.92;99368.63;5050824;28;20045;-66
2022/11/22 06:09:32;;;;;;;24.75;12.48;;;;;;;3.31;82.58;99369.75;5039927;28;20083;-66
2022/11/22 06:11:59;;;;;;;27.42;13.18;;;;;;;2.48;86.15;99366.38;5050387;28;20475;-66
2022/11/22 06:14:25;;;;;;;20.60;10.10;;;;;;;2.28;87.62;99359.44;5050021;28;20040;-66
2022/11/22 06:16:52;;;;;;;31.35;13.63;;;;;;;2.14;89.57;99360.91;5040987;28;20037;-66
2022/11/22 06:19:18;;;;;;;26.27;13.82;;;;;;;2.12;89.49;99373.88;5050733;28;20462;-66
2022/11/22 06:21:46;;;;;;;26.75;13.43;;;;;;;2.42;88.98;99371.81;5050525;28;20056;-66
2022/11/22 06:24:13;;;;;;;28.13;14.48;;;;;;;2.77;86.37;99372.97;5040280;28;20466;-66
2022/11/22 06:26:39;;;;;;;25.48;13.45;;;;;;;2.65;86.31;99382.09;5034340;28;20484;-66
2022/11/22 06:29:06;;;;;;;31.95;13.50;;;;;;;2.39;88.11;99377.97;5049673;28;20091;-66
2022/11/22 06:31:32;;;;;;;26.02;12.70;;;;;;;2.19;89.57;99395.16;5033758;28;20036;-66
2022/11/22 06:34:00;;;;;;;27.83;13.57;;;;;;;2.02;90.84;99397.56;5050733;28;20055;-66
2022/11/22 06:36:28;;;;;;;29.13;13.65;;;;;;;2.65;88.15;99399.34;5049137;28;20049;-66
2022/11/22 06:38:56;;;;;;;26.80;14.02;;;;;;;2.55;87.24;99408.41;5039947;28;20503;-66
2022/11/22 06:41:25;;;;;;;27.95;13.68;;;;;;;3.00;85.91;99411.66;5050492;28;20063;-66
2022/11/22 06:43:53;;;;;;;27.35;13.35;;;;;;;3.20;84.16;99403.06;5049524;28;20044;-66
2022/11/22 06:46:22;;;;;;;26.13;12.07;;;;;;;3.50;82.54;99421.63;5039640;28;20053;-66
2022/11/22 06:48:48;;;;;;;22.80;12.07;;;;;;;3.09;83.31;99431.16;5049546;28;20063;-66
2022/11/22 06:51:17;;;;;;;24.90;13.23;;;;;;;2.56;86.12;99423.84;5049793;28;20044;-66
2022/11/22 06:53:43;;;;;;;26.70;13.63;;;;;;;2.93;85.37;99426.63;5040751;28;20044;-67
2022/11/22 06:56:14;;;;;;;23.83;9.77;;;;;;;2.91;85.31;99425.84;5048756;28;20045;-66
2022/11/22 06:58:41;;;;;;;24.27;11.45;;;;;;;3.29;83.34;99415.59;5049781;28;20051;-66
2022/11/22 07:01:09;;;;;;;24.75;12.27;;;;;;;2.79;85.14;99428.94;5039134;28;20484;-66
2022/11/22 07:03:36;;;;;;;26.35;12.52;;;;;;;2.72;85.62;99417.16;5049180;28;20056;-66
2022/11/22 07:06:03;;;;;;;24.17;11.07;;;;;;;2.26;87.75;99425.03;5049460;28;20045;-66
2022/11/22 07:08:30;;;;;;;22.33;10.05;;;;;;;1.99;89.21;99428.69;5039194;28;20500;-66
2022/11/22 07:11:01;;;;;;;18.25;10.05;;;;;;;1.42;92.50;99429.91;5049332;28;20049;-66
2022/11/22 07:13:30;;;;;;;23.65;12.27;;;;;;;1.99;91.01;99419.22;5050002;28;20603;-66
2022/11/22 07:15:57;;;;;;;27.90;12.50;;;;;;;2.27;88.78;99424.16;5049136;28;20083;-66
2022/11/22 07:18:24;;;;;;;24.77;11.25;;;;;;;1.99;89.07;99419.22;5048908;28;20055;-66
2022/11/22 07:20:50;;;;;;;20.50;9.48;;;;;;;2.13;89.44;99424.69;5048541;28;20056;-66
2022/11/22 07:23:17;;;;;;;21.50;9.60;;;;;;;1.72;90.40;99421.06;5047627;28;20061;-66
2022/11/22 07:25:44;;;;;;;18.27;9.32;;;;;;;2.02;89.39;99418.25;5047633;28;20048;-66
2022/11/22 07:28:11;;;;;;;29.63;13.43;;;;;;;2.01;89.81;99432.91;5048744;28;20063;-66
2022/11/22 07:30:39;;;;;;;30.50;13.85;;;;;;;1.84;90.17;99424.94;5041483;28;20037;-66
2022/11/22 07:33:05;;;;;;;24.33;11.60;;;;;;;2.26;89.15;99450.91;5038741;28;20052;-66
2022/11/22 07:35:32;;;;;;;17.77;9.85;;;;;;;1.91;89.79;99431.56;5065453;28;20055;-66
2022/11/22 07:37:58;;;;;;;27.80;12.40;;;;;;;2.56;87.71;99423.84;5043234;28;20084;-66
2022/11/22 07:40:25;;;;;;;24.75;12.00;;;;;;;2.70;86.12;99418.94;5047204;28;20051;-66
2022/11/22 07:42:51;;;;;;;25.75;12.25;;;;;;;2.61;86.20;99413.31;5049250;28;20052;-67
2022/11/22 07:45:18;;;;;;;30.27;12.25;;;;;;;2.35;88.11;99428.13;5038326;28;20060;-66
2022/11/22 07:47:46;;;;;;;25.20;13.00;;;;;;;2.27;87.77;99426.75;5047803;28;20052;-66
2022/11/22 07:50:12;;;;;;;20.70;9.27;;;;;;;2.54;86.94;99417.91;5048387;28;20044;-66
2022/11/22 07:52:39;;;;;;;21.40;11.85;;;;;;;1.91;89.40;99426.41;5038620;28;20643;-66
2022/11/22 07:55:06;;;;;;;26.25;12.05;;;;;;;2.33;87.88;99429.06;5047200;28;20643;-66
2022/11/22 07:57:33;;;;;;;23.98;12.82;;;;;;;2.16;88.23;99431.47;5048805;28;20044;-66
2022/11/22 08:00:00;;;;;;;31.65;12.50;;;;;;;2.07;89.11;99431.84;5038946;28;20044;-66
2022/11/22 08:02:27;;;;;;;19.30;9.60;;;;;;;2.25;88.65;99432.00;5047156;28;20105;-66
2022/11/22 08:04:54;;;;;;;20.38;10.20;;;;;;;2.43;87.74;99433.00;5039556;28;20512;-66
2022/11/22 08:07:21;;;;;;;21.33;11.63;;;;;;;2.07;89.01;99442.19;5039551;28;20044;-66
2022/11/22 08:09:47;;;;;;;20.17;10.50;;;;;;;2.45;86.82;99439.78;5046903;28;20447;-66
2022/11/22 08:12:14;;;;;;;24.33;11.27;;;;;;;1.56;90.31;99442.34;5047427;28;20519;-66
2022/11/22 08:14:40;;;;;;;19.20;9.98;;;;;;;1.61;90.94;99440.44;5038539;28;20051;-66
2022/11/22 08:17:08;;;;;;;21.60;11.20;;;;;;;2.34;87.89;99438.53;5046903;28;20493;-66
2022/11/22 08:19:34;;;;;;;24.83;10.10;;;;;;;2.20;86.90;99449.41;5048020;28;20102;-66
2022/11/22 08:22:02;;;;;;;23.02;10.80;;;;;;;2.14;87.62;99446.22;5041546;28;20051;-66
2022/11/22 08:24:28;;;;;;;23.40;11.38;;;;;;;2.14;88.09;99447.06;5070410;28;20048;-66
2022/11/22 08:26:55;;;;;;;24.92;11.02;;;;;;;2.84;84.70;99436.53;5047643;28;20489;-66
2022/11/22 08:29:21;;;;;;;22.45;11.02;;;;;;;3.20;82.64;99440.16;5035651;28;20063;-66
2022/11/22 08:31:48;;;;;;;23.83;10.32;;;;;;;3.39;81.58;99440.22;5050433;28;20064;-66
2022/11/22 08:34:14;;;;;;;20.98;10.80;;;;;;;3.54;81.21;99430.94;5045948;28;20444;-67
2022/11/22 08:36:41;;;;;;;24.13;11.73;;;;;;;3.48;81.24;99421.69;5037246;28;20424;-66
2022/11/22 08:39:09;;;;;;;25.25;12.07;;;;;;;3.10;82.11;99428.53;5046506;28;20074;-67
2022/11/22 08:41:35;;;;;;;30.50;11.90;;;;;;;3.38;82.29;99439.38;5047549;28;20138;-66
2022/11/22 08:44:02;;;;;;;20.00;10.90;;;;;;;3.27;81.90;99449.38;5038037;28;20397;-66
2022/11/22 08:46:28;;;;;;;22.75;11.85;;;;;;;3.46;81.41;99446.81;5046972;28;20072;-66
2022/11/22 08:48:54;;;;;;;21.20;9.30;;;;;;;3.55;80.77;99440.41;5048283;28;20048;-66
2022/11/22 08:51:21;;;;;;;25.98;11.68;;;;;;;3.54;81.46;99451.69;5039384;28;20048;-66
2022/11/22 08:53:47;;;;;;;28.10;11.45;;;;;;;3.75;80.29;99438.63;5047041;28;20052;-65
2022/11/22 08:56:16;;;;;;;23.90;11.40;;;;;;;3.68;80.26;99455.34;5047652;28;20051;-65
2022/11/22 08:58:42;;;;;;;26.55;12.02;;;;;;;3.47;81.69;99453.69;5037344;28;20040;-65
2022/11/22 09:01:11;;;;;;;21.60;10.05;;;;;;;3.55;80.49;99464.56;5046459;28;20519;-65
2022/11/22 09:03:38;;;;;;;20.33;10.27;;;;;;;3.20;82.22;99460.03;5047794;28;20044;-65
2022/11/22 09:06:07;;;;;;;18.58;10.25;;;;;;;3.43;81.72;99459.91;5037066;28;20128;-65
2022/11/22 09:08:36;;;;;;;29.13;11.60;;;;;;;3.04;82.87;99475.38;5046451;28;20052;-65
2022/11/22 09:11:04;;;;;;;20.35;10.90;;;;;;;3.08;83.45;99469.16;5047507;28;20543;-65
2022/11/22 09:13:32;;;;;;;26.02;11.80;;;;;;;2.93;84.14;99488.75;5037282;28;20063;-64
2022/11/22 09:16:01;;;;;;;22.52;11.35;;;;;;;2.81;84.69;99489.25;5046580;28;20040;-65
2022/11/22 09:18:28;;;;;;;26.00;12.50;;;;;;;2.59;86.13;99503.94;5046366;28;20052;-64
2022/11/22 09:20:58;;;;;;;20.08;10.55;;;;;;;2.85;85.54;99500.31;5045683;28;20055;-64
2022/11/22 09:23:24;;;;;;;18.17;10.60;;;;;;;3.34;83.27;99493.97;5074634;28;20039;-64
2022/11/22 09:25:56;;;;;;;24.45;11.75;;;;;;;3.46;81.91;99500.41;5044370;28;20074;-63
2022/11/22 09:28:23;;;;;;;23.88;10.85;;;;;;;3.51;82.57;99490.69;5051762;28;20051;-64
2022/11/22 09:30:50;;;;;;;19.15;10.73;;;;;;;3.00;83.25;99486.75;5050270;28;20060;-64
2022/11/22 09:33:17;;;;;;;24.08;11.40;;;;;;;2.91;84.97;99489.75;5041520;28;20045;-64
2022/11/22 09:35:43;;;;;;;25.98;12.18;;;;;;;3.42;82.72;99490.16;5051124;28;20476;-65
2022/11/22 09:38:10;;;;;;;25.23;11.65;;;;;;;3.72;81.37;99498.38;5049961;28;20059;-65
2022/11/22 09:40:36;;;;;;;23.05;11.45;;;;;;;3.74;80.97;99501.72;5041825;28;20048;-65
2022/11/22 09:43:12;;;;;;;26.58;12.50;;;;;;;3.39;83.06;99499.81;5051501;28;20048;-65
2022/11/22 09:46:00;;;;;;;20.17;11.18;;;;;;;3.20;82.47;99506.66;5051346;28;20045;-64
2022/11/22 09:48:44;;;;;;;23.15;11.20;;;;;;;3.38;82.84;99508.50;5049632;28;20040;-65
2022/11/22 09:51:14;;;;;;;25.55;13.18;;;;;;;2.94;83.78;99512.91;5042092;28;20476;-65
2022/11/22 09:53:46;;;;;;;23.67;11.27;;;;;;;3.23;84.42;99517.75;5051910;28;20052;-65
2022/11/22 09:56:15;;;;;;;;;;;;;;;3.14;84.44;99520.69;5051884;28;20044;-65
2022/11/22 09:58:47;;;;;;;21.67;11.05;;;;;;;2.93;84.80;99537.09;5043717;28;19924;-65
2022/11/22 10:01:20;;;;;;;20.70;10.07;;;;;;;2.66;85.24;99535.63;5049464;28;20122;-65
2022/11/22 10:03:48;;;;;;;22.55;12.93;;;;;;;2.44;86.58;99531.25;5040794;28;20040;-65
2022/11/22 10:06:24;;;;;;;25.73;12.50;;;;;;;3.24;85.23;99513.41;5050757;28;20059;-65
2022/11/22 10:08:59;;;;;;;24.75;10.38;;;;;;;3.21;83.41;99523.91;5050545;28;20053;-65
2022/11/22 10:11:34;;;;;;;24.75;12.27;;;;;;;3.06;84.52;99525.38;5050288;28;20531;-65
2022/11/22 10:14:05;;;;;;;24.95;13.27;;;;;;;2.82;85.02;99531.50;5050786;28;20090;-65
2022/11/22 10:16:41;;;;;;;21.83;10.90;;;;;;;2.95;85.29;99530.13;5040342;28;20517;-65
2022/11/22 10:19:15;;;;;;;22.70;11.32;;;;;;;3.23;84.17;99522.94;5049479;28;20045;-66
2022/11/22 10:21:42;;;;;;;23.05;11.35;;;;;;;3.14;84.82;99523.28;5040521;28;20040;-66
2022/11/22 10:24:14;;;;;;;27.17;11.95;;;;;;;3.60;82.79;99513.59;5049932;28;20041;-65
2022/11/22 10:26:41;;;;;;;15.10;8.52;;;;;;;3.88;81.45;99508.94;5051025;28;20083;-65
2022/11/22 10:29:23;;;;;;;22.02;11.15;;;;;;;4.13;80.17;99508.66;5040425;28;20045;-66
2022/11/22 10:31:59;;;;;;;23.58;11.80;;;;;;;3.87;81.12;99505.50;5050820;28;20044;-66
2022/11/22 10:34:39;;;;;;;24.15;10.10;;;;;;;4.19;80.49;99503.19;5050589;28;20053;-65
2022/11/22 10:37:14;;;;;;;24.40;11.88;;;;;;;3.60;81.69;99501.50;5050911;28;20408;-65
2022/11/22 10:39:55;;;;;;;22.67;10.45;;;;;;;3.65;82.08;99499.56;5048428;28;20056;-65
2022/11/22 10:42:51;;;;;;;21.17;10.90;;;;;;;3.81;81.25;99492.78;5049836;28;20131;-66
2022/11/22 10:45:24;;;;;;;19.10;11.00;;;;;;;3.88;81.03;99491.59;5049513;28;20047;-66
2022/11/22 10:48:07;;;;;;;20.70;11.10;;;;;;;3.99;81.34;99488.53;5040602;28;20052;-66
2022/11/22 10:50:41;;;;;;;;;;;;;;;4.04;81.88;99490.91;5054428;28;20044;-65
2022/11/22 10:53:16;;;;;;;22.95;10.88;;;;;;;4.23;80.76;99491.78;5047862;28;19920;-66
2022/11/22 10:55:55;;;;;;;21.63;11.32;;;;;;;4.11;81.41;99490.56;5049164;28;20442;-66
2022/11/22 10:58:31;;;;;;;27.92;12.55;;;;;;;3.84;81.80;99489.22;5055070;28;20058;-66
2022/11/22 11:01:06;;;;;;;22.13;11.77;;;;;;;4.23;81.16;99491.78;5049272;28;20041;-66
2022/11/22 11:03:38;;;;;;;19.90;10.25;;;;;;;3.91;81.56;99482.84;5040170;28;20051;-66
2022/11/22 11:06:11;;;;;;;21.60;10.80;;;;;;;4.13;81.14;99485.31;5050433;28;20054;-66
2022/11/22 11:08:40;;;;;;;20.38;9.63;;;;;;;4.18;80.52;99486.78;5049287;28;20064;-66
2022/11/22 11:11:06;;;;;;;22.25;11.48;;;;;;;4.77;78.24;99493.53;5039294;28;20052;-66
2022/11/22 11:13:36;;;;;;;23.20;11.13;;;;;;;4.96;77.64;99488.28;5048696;28;20056;-66
2022/11/22 11:16:08;;;;;;;23.33;11.25;;;;;;;5.03;76.57;99481.88;5050095;28;20048;-66
2022/11/22 11:18:41;;;;;;;23.92;11.60;;;;;;;5.11;76.65;99478.00;5049438;28;20048;-66
2022/11/22 11:21:12;;;;;;;19.85;10.05;;;;;;;4.63;78.10;99480.38;5047921;28;20117;-66
2022/11/22 11:23:38;;;;;;;22.13;10.65;;;;;;;4.95;77.47;99478.84;5020201;28;20362;-66
2022/11/22 11:26:19;;;;;;;21.38;9.80;;;;;;;5.21;75.94;99475.81;5029266;28;20666;-66
2022/11/22 11:28:46;;;;;;;17.50;8.98;;;;;;;5.39;74.65;99480.91;5026469;28;20397;-66
2022/11/22 11:31:14;;;;;;;23.33;11.77;;;;;;;4.69;76.82;99475.72;5049194;28;20484;-66
2022/11/22 11:33:42;;;;;;;27.17;12.57;;;;;;;4.65;77.99;99473.38;5048633;28;20063;-66
2022/11/22 11:36:11;;;;;;;23.38;10.88;;;;;;;4.87;77.69;99477.47;5039003;28;20393;-66
2022/11/22 11:38:52;;;;;;;23.88;11.65;;;;;;;5.34;76.03;99471.66;5058368;28;20041;-66
2022/11/22 11:41:29;;;;;;;21.40;11.02;;;;;;;5.48;75.97;99470.97;5061354;28;20048;-66
2022/11/22 11:43:57;;;;;;;23.95;12.02;;;;;;;5.60;76.00;99473.78;5052632;28;20045;-66